Time;durP1;ratioP1;P1;durP2;ratioP2;P2;SDS_P1;SDS_P2;PMS_P1;PMS_P2;Temp;Humidity;BMP_temperature;BMP_pressure;BME280_temperature;BME280_humidity;BME280_pressure;Samples;Min_cycle;Max_cycle;Signal;HPM_P1;HPM_P2
2021/10/02 00:31:01;;;;;;;22.58;13.95;;;13.00;99.90;;;;;;4829759;29;20045;-85
2021/10/02 00:35:36;;;;;;;25.17;15.98;;;13.00;99.90;;;;;;4834029;29;20130;-85
2021/10/02 00:46:34;;;;;;;28.38;17.38;;;13.00;99.90;;;;;;4861015;29;20053;-84
2021/10/02 00:49:00;;;;;;;25.17;18.23;;;13.00;99.90;;;;;;4819184;29;20041;-86
2021/10/02 00:51:26;;;;;;;25.95;17.30;;;13.00;99.90;;;;;;4822460;29;20460;-84
2021/10/02 00:53:52;;;;;;;27.67;17.27;;;13.00;99.90;;;;;;4836891;29;20037;-84
2021/10/02 00:56:18;;;;;;;22.60;17.00;;;13.00;99.90;;;;;;4855563;29;20745;-83
2021/10/02 00:58:47;;;;;;;30.92;19.33;;;13.00;99.90;;;;;;4865822;29;20041;-84
2021/10/02 01:01:19;;;;;;;27.75;18.33;;;13.00;99.90;;;;;;4819550;29;20449;-83
2021/10/02 01:04:28;;;;;;;29.27;18.92;;;12.90;99.90;;;;;;4845489;29;20040;-84
2021/10/02 01:06:59;;;;;;;28.40;18.77;;;13.00;99.90;;;;;;4857981;29;20044;-85
2021/10/02 01:09:41;;;;;;;25.38;18.48;;;13.00;99.90;;;;;;4856230;29;20093;-85
2021/10/02 01:12:46;;;;;;;29.23;19.92;;;13.00;99.90;;;;;;4845649;29;20140;-84
2021/10/02 01:15:20;;;;;;;27.45;19.17;;;13.00;99.90;;;;;;4858472;29;20093;-84
2021/10/02 01:17:58;;;;;;;28.75;19.20;;;12.90;99.90;;;;;;4867278;29;20043;-84
2021/10/02 01:20:49;;;;;;;31.85;20.08;;;12.90;99.90;;;;;;4857526;29;20167;-84
2021/10/02 01:23:23;;;;;;;31.30;20.50;;;13.00;99.90;;;;;;4856199;29;20137;-85
2021/10/02 01:26:10;;;;;;;30.38;19.92;;;13.00;99.90;;;;;;4860946;29;20634;-85
2021/10/02 01:28:37;;;;;;;33.70;19.52;;;13.00;99.90;;;;;;4849396;29;20555;-85
2021/10/02 01:31:09;;;;;;;30.15;19.42;;;13.00;99.90;;;;;;4845074;29;20077;-84
2021/10/02 01:33:46;;;;;;;;;;;13.00;99.90;;;;;;4856366;29;20107;-84
2021/10/02 01:47:14;;;;;;;32.90;20.55;;;13.00;99.90;;;;;;4858815;29;20833;-84
2021/10/02 01:49:47;;;;;;;29.55;20.35;;;13.00;99.90;;;;;;4857537;29;20239;-84
2021/10/02 01:52:15;;;;;;;28.92;20.73;;;12.90;99.90;;;;;;4863217;29;20049;-86
2021/10/02 01:54:44;;;;;;;27.98;20.40;;;12.90;99.90;;;;;;4845884;29;20041;-84
2021/10/02 01:57:11;;;;;;;31.42;20.75;;;13.00;99.90;;;;;;4848062;29;20036;-84
2021/10/02 01:59:38;;;;;;;30.95;21.08;;;12.90;99.90;;;;;;4842240;29;20132;-86
2021/10/02 02:02:06;;;;;;;29.85;21.00;;;12.90;99.90;;;;;;4846159;29;20045;-84
2021/10/02 02:04:33;;;;;;;33.35;22.15;;;12.90;99.90;;;;;;4844367;29;20568;-83
2021/10/02 02:07:01;;;;;;;32.53;22.33;;;12.90;99.90;;;;;;4845226;29;20041;-84
2021/10/02 02:09:37;;;;;;;32.33;22.50;;;12.90;99.90;;;;;;4873507;29;20045;-86
2021/10/02 02:12:07;;;;;;;34.17;23.05;;;12.90;99.90;;;;;;4828754;29;20076;-85
2021/10/02 02:14:36;;;;;;;33.05;21.27;;;12.80;99.90;;;;;;4873181;29;20081;-85
2021/10/02 02:17:05;;;;;;;32.13;22.52;;;12.90;99.90;;;;;;4860500;29;20046;-87
2021/10/02 02:19:32;;;;;;;37.13;22.88;;;12.80;99.90;;;;;;4846883;29;20077;-84
2021/10/02 02:21:58;;;;;;;33.33;22.40;;;12.80;99.90;;;;;;4844269;29;20134;-84
2021/10/02 02:24:25;;;;;;;27.55;21.60;;;12.80;99.90;;;;;;4858235;29;20084;-85
2021/10/02 02:26:52;;;;;;;34.30;23.33;;;12.80;99.90;;;;;;4864446;29;20447;-86
2021/10/02 02:29:18;;;;;;;36.75;24.58;;;12.80;99.90;;;;;;4839565;29;20041;-87
2021/10/02 02:31:44;;;;;;;39.40;24.92;;;12.80;99.90;;;;;;4854381;29;20136;-86
2021/10/02 02:34:11;;;;;;;36.92;24.63;;;12.80;99.90;;;;;;4860176;29;20036;-85
2021/10/02 02:36:37;;;;;;;38.72;25.95;;;12.80;99.90;;;;;;4847709;29;20041;-86
2021/10/02 02:39:03;;;;;;;37.83;25.45;;;12.80;99.90;;;;;;4847689;29;20176;-84
2021/10/02 02:41:28;;;;;;;34.67;24.63;;;12.80;99.90;;;;;;4866023;29;20047;-85
2021/10/02 02:43:54;;;;;;;39.75;25.80;;;12.80;99.90;;;;;;4832485;29;20033;-84
2021/10/02 02:46:40;;;;;;;39.63;24.38;;;12.80;99.90;;;;;;4848968;29;20061;-85
2021/10/02 02:49:19;;;;;;;35.58;24.98;;;12.90;99.90;;;;;;4838064;29;20049;-84
2021/10/02 02:52:02;;;;;;;35.42;24.88;;;12.90;99.90;;;;;;4858399;29;20052;-86
2021/10/02 02:54:40;;;;;;;37.25;25.50;;;12.90;99.90;;;;;;4854768;29;20047;-86
2021/10/02 02:57:20;;;;;;;38.85;26.85;;;12.90;99.90;;;;;;4838615;29;20060;-84
2021/10/02 03:00:04;;;;;;;36.78;24.67;;;12.90;99.90;;;;;;4858934;29;20056;-86
2021/10/02 03:02:35;;;;;;;37.22;24.92;;;12.90;99.90;;;;;;4856311;29;22384;-84
2021/10/02 03:05:02;;;;;;;38.88;26.20;;;12.90;99.90;;;;;;4843654;29;20404;-86
2021/10/02 03:07:30;;;;;;;38.03;25.85;;;12.90;99.90;;;;;;4825658;29;20045;-84
2021/10/02 03:09:56;;;;;;;35.05;26.33;;;12.90;99.90;;;;;;4838670;29;20045;-85
2021/10/02 03:12:33;;;;;;;35.08;25.50;;;12.90;99.90;;;;;;4845980;29;20480;-86
2021/10/02 03:15:01;;;;;;;38.00;24.67;;;12.90;99.90;;;;;;4862721;29;20156;-85
2021/10/02 03:17:29;;;;;;;38.53;26.52;;;12.90;99.90;;;;;;4840980;29;21178;-85
2021/10/02 03:19:56;;;;;;;40.45;27.40;;;12.90;99.90;;;;;;4864631;29;20051;-84
2021/10/02 03:22:26;;;;;;;40.45;26.65;;;12.90;99.90;;;;;;4830976;29;20055;-84
2021/10/02 03:24:54;;;;;;;41.30;26.13;;;12.90;99.90;;;;;;4859565;29;20374;-84
2021/10/02 03:27:21;;;;;;;35.97;24.83;;;12.90;99.90;;;;;;4859933;29;20216;-86
2021/10/02 03:29:47;;;;;;;40.05;25.45;;;12.90;99.90;;;;;;4853655;29;20067;-85
2021/10/02 03:32:14;;;;;;;36.47;25.48;;;12.90;99.90;;;;;;4883192;29;20090;-86
2021/10/02 03:34:39;;;;;;;39.78;26.02;;;12.80;99.90;;;;;;4842674;29;20048;-86
2021/10/02 03:37:05;;;;;;;39.30;25.30;;;12.80;99.90;;;;;;4868399;29;20316;-85
2021/10/02 03:39:31;;;;;;;36.35;25.40;;;12.80;99.90;;;;;;4853640;29;20048;-85
2021/10/02 03:42:14;;;;;;;38.75;26.08;;;12.80;99.90;;;;;;4871408;29;20040;-86
2021/10/02 03:44:43;;;;;;;39.85;26.35;;;12.80;99.90;;;;;;4868651;29;20465;-86
2021/10/02 03:47:10;;;;;;;39.28;25.70;;;12.80;99.90;;;;;;4863081;29;20061;-85
2021/10/02 03:49:36;;;;;;;42.30;26.33;;;12.80;99.90;;;;;;4867596;29;20571;-86
2021/10/02 03:52:03;;;;;;;40.70;27.42;;;12.80;99.90;;;;;;4846783;29;20558;-85
2021/10/02 03:54:29;;;;;;;41.92;28.15;;;12.80;99.90;;;;;;4863933;29;20041;-86
2021/10/02 03:56:55;;;;;;;37.10;25.92;;;12.80;99.90;;;;;;4867564;29;20084;-86
2021/10/02 03:59:21;;;;;;;36.92;26.38;;;12.80;99.90;;;;;;4866551;29;20432;-86
2021/10/02 04:01:46;;;;;;;41.30;26.58;;;12.80;99.90;;;;;;4833421;29;20049;-86
2021/10/02 04:04:12;;;;;;;39.00;26.60;;;12.80;99.90;;;;;;4863748;29;20076;-88
2021/10/02 04:06:38;;;;;;;41.95;26.30;;;12.80;99.90;;;;;;4848737;29;20114;-86
2021/10/02 04:09:04;;;;;;;42.25;27.25;;;12.80;99.90;;;;;;4837273;29;21498;-84
2021/10/02 04:11:32;;;;;;;42.22;27.20;;;12.70;99.90;;;;;;4837735;29;20116;-87
2021/10/02 04:14:02;;;;;;;43.97;28.10;;;12.70;99.90;;;;;;4876698;29;20041;-87
2021/10/02 04:16:29;;;;;;;43.20;26.90;;;12.70;99.90;;;;;;4828463;29;20063;-86
2021/10/02 04:18:56;;;;;;;43.95;26.98;;;12.70;99.90;;;;;;4845723;29;20044;-86
2021/10/02 04:21:22;;;;;;;43.00;27.75;;;12.70;99.90;;;;;;4863165;29;20515;-85
2021/10/02 04:23:48;;;;;;;45.75;28.80;;;12.70;99.90;;;;;;4863118;29;20230;-85
2021/10/02 04:26:14;;;;;;;48.63;28.42;;;12.60;99.90;;;;;;4820499;29;20033;-84
2021/10/02 04:28:39;;;;;;;50.22;29.52;;;12.60;99.90;;;;;;4847338;29;20045;-86
2021/10/02 04:31:05;;;;;;;47.05;29.02;;;12.60;99.90;;;;;;4855708;29;20048;-84
2021/10/02 04:33:31;;;;;;;52.33;30.70;;;12.70;99.90;;;;;;4854666;29;20060;-86
2021/10/02 04:35:58;;;;;;;51.40;30.95;;;12.60;99.90;;;;;;4833474;29;20040;-87
2021/10/02 04:38:25;;;;;;;50.38;30.15;;;12.70;99.90;;;;;;4860381;29;20036;-84
2021/10/02 04:40:54;;;;;;;50.22;31.42;;;12.70;99.90;;;;;;4864016;29;20037;-84
2021/10/02 04:43:20;;;;;;;46.53;31.23;;;12.70;99.90;;;;;;4864090;29;20056;-86
2021/10/02 04:45:46;;;;;;;59.08;32.53;;;12.70;99.90;;;;;;4865799;29;20040;-85
2021/10/02 04:48:12;;;;;;;52.78;32.40;;;12.70;99.90;;;;;;4830053;29;20574;-84
2021/10/02 04:50:38;;;;;;;50.92;32.75;;;12.70;99.90;;;;;;4846390;29;20045;-84
2021/10/02 04:53:03;;;;;;;52.70;33.13;;;12.70;99.90;;;;;;4829115;29;20277;-85
2021/10/02 04:55:29;;;;;;;50.00;31.45;;;12.70;99.90;;;;;;4825282;29;20191;-87
2021/10/02 04:57:55;;;;;;;57.10;33.65;;;12.70;99.90;;;;;;4842183;29;20155;-86
2021/10/02 05:00:21;;;;;;;57.53;32.08;;;12.70;99.90;;;;;;4816732;29;20041;-87
2021/10/02 05:02:46;;;;;;;53.80;32.88;;;12.70;99.90;;;;;;4830863;29;20052;-86
2021/10/02 05:05:12;;;;;;;55.95;32.97;;;12.70;99.90;;;;;;4839535;29;20672;-86
2021/10/02 05:07:38;;;;;;;53.85;33.63;;;12.70;99.90;;;;;;4833739;29;20127;-86
2021/10/02 05:10:04;;;;;;;55.45;33.35;;;12.70;99.90;;;;;;4853926;29;20125;-86
2021/10/02 05:12:30;;;;;;;57.30;34.30;;;12.70;99.90;;;;;;4853854;29;20471;-84
2021/10/02 05:14:55;;;;;;;58.55;35.65;;;12.70;99.90;;;;;;4845517;29;20036;-85
2021/10/02 05:17:22;;;;;;;56.08;34.53;;;12.70;99.90;;;;;;4837814;29;20032;-85
2021/10/02 05:19:49;;;;;;;60.33;35.90;;;12.70;99.90;;;;;;4832646;29;20051;-85
2021/10/02 05:22:15;;;;;;;58.72;35.28;;;12.70;99.90;;;;;;4864267;29;20049;-84
2021/10/02 05:24:41;;;;;;;60.97;34.97;;;12.70;99.90;;;;;;4835368;29;20112;-85
2021/10/02 05:27:08;;;;;;;62.00;36.03;;;12.70;99.90;;;;;;4844537;29;21345;-84
2021/10/02 05:29:39;;;;;;;59.95;35.22;;;12.70;99.90;;;;;;4821499;29;20041;-85
2021/10/02 05:32:06;;;;;;;60.40;37.15;;;12.70;99.90;;;;;;4839465;29;20063;-84
2021/10/02 05:34:32;;;;;;;61.35;35.55;;;12.70;99.90;;;;;;4865079;29;20064;-84
2021/10/02 05:36:58;;;;;;;61.15;35.92;;;12.80;99.90;;;;;;4840377;29;22231;-87
2021/10/02 05:39:25;;;;;;;54.47;36.08;;;12.80;99.90;;;;;;4829556;29;20044;-85
2021/10/02 05:41:51;;;;;;;62.90;35.85;;;12.80;99.90;;;;;;4844956;29;20187;-86
2021/10/02 05:44:17;;;;;;;65.43;36.40;;;12.80;99.90;;;;;;4826508;29;20751;-85
2021/10/02 05:46:43;;;;;;;58.40;35.38;;;12.80;99.90;;;;;;4831735;29;20404;-85
2021/10/02 05:49:09;;;;;;;60.90;36.00;;;12.80;99.90;;;;;;4827688;29;20056;-85
2021/10/02 05:51:34;;;;;;;60.90;36.85;;;12.80;99.90;;;;;;4838185;29;20816;-85
2021/10/02 05:54:00;;;;;;;59.75;35.60;;;12.80;99.90;;;;;;4845626;29;20049;-85
2021/10/02 05:56:26;;;;;;;54.90;34.63;;;12.80;99.90;;;;;;4845252;29;20056;-86
2021/10/02 05:58:52;;;;;;;61.38;35.63;;;12.80;99.90;;;;;;4839142;29;20151;-85
2021/10/02 06:01:18;;;;;;;56.90;36.08;;;12.90;99.90;;;;;;4839516;29;20504;-87
2021/10/02 06:03:45;;;;;;;55.90;34.75;;;12.90;99.90;;;;;;4829205;29;20132;-86
2021/10/02 06:06:12;;;;;;;62.85;37.03;;;12.90;99.90;;;;;;4852611;29;20120;-84
2021/10/02 06:08:37;;;;;;;60.33;35.45;;;12.90;99.90;;;;;;4836449;29;20048;-85
2021/10/02 06:11:03;;;;;;;60.92;35.85;;;12.90;99.90;;;;;;4841241;29;20064;-84
2021/10/02 06:13:32;;;;;;;55.33;35.20;;;13.00;99.90;;;;;;4858761;29;20041;-86
2021/10/02 06:16:02;;;;;;;59.97;36.17;;;13.00;99.90;;;;;;4831954;29;20112;-85
2021/10/02 06:18:28;;;;;;;54.90;35.20;;;13.00;99.90;;;;;;4853651;29;20370;-85
2021/10/02 06:20:54;;;;;;;52.92;34.30;;;13.00;99.90;;;;;;4854946;29;20048;-85
2021/10/02 06:23:22;;;;;;;54.58;34.03;;;13.00;99.90;;;;;;4856949;29;20048;-88
2021/10/02 06:25:48;;;;;;;55.80;33.80;;;13.00;99.90;;;;;;4866053;29;20049;-86
2021/10/02 06:28:15;;;;;;;60.78;35.33;;;13.00;99.90;;;;;;4844943;29;20051;-85
2021/10/02 06:30:41;;;;;;;53.90;33.63;;;13.00;99.90;;;;;;4862750;29;20040;-84
2021/10/02 06:33:06;;;;;;;51.20;33.47;;;13.00;99.90;;;;;;4830089;29;20056;-86
2021/10/02 06:35:32;;;;;;;52.90;33.53;;;13.10;99.90;;;;;;4838590;29;20069;-85
2021/10/02 06:37:58;;;;;;;53.47;32.97;;;13.10;99.90;;;;;;4855763;29;20048;-84
2021/10/02 06:40:25;;;;;;;59.83;33.80;;;13.10;99.90;;;;;;4864246;29;20056;-86
2021/10/02 06:42:51;;;;;;;54.17;33.90;;;13.00;99.90;;;;;;4851351;29;20049;-84
2021/10/02 06:45:17;;;;;;;66.05;33.90;;;13.10;99.90;;;;;;4857013;29;20055;-85
2021/10/02 06:47:43;;;;;;;49.88;32.88;;;13.10;99.90;;;;;;4868694;29;22566;-87
2021/10/02 06:50:08;;;;;;;56.50;33.95;;;13.10;99.90;;;;;;4873162;29;20044;-85
2021/10/02 06:52:35;;;;;;;61.75;33.70;;;13.10;99.90;;;;;;4862745;29;20045;-85
2021/10/02 06:55:00;;;;;;;52.60;32.17;;;13.10;99.90;;;;;;4873478;29;20580;-85
2021/10/02 06:57:26;;;;;;;56.35;33.95;;;13.10;99.90;;;;;;4875822;29;20084;-89
2021/10/02 06:59:52;;;;;;;58.10;34.53;;;13.10;99.90;;;;;;4858929;29;20045;-88
2021/10/02 07:02:18;;;;;;;62.95;34.65;;;13.10;99.90;;;;;;4858719;29;20756;-85
2021/10/02 07:04:45;;;;;;;54.28;30.90;;;13.20;99.90;;;;;;4842814;29;20053;-85
2021/10/02 07:07:11;;;;;;;51.78;32.05;;;13.20;99.90;;;;;;4854743;29;20080;-85
2021/10/02 07:09:37;;;;;;;57.20;34.10;;;13.20;99.90;;;;;;4855590;29;20413;-84
2021/10/02 07:12:03;;;;;;;52.90;33.85;;;13.30;99.90;;;;;;4876562;29;20044;-88
2021/10/02 07:14:29;;;;;;;52.97;34.33;;;13.30;99.90;;;;;;4859308;29;20119;-87
2021/10/02 07:16:55;;;;;;;51.47;32.30;;;13.40;99.90;;;;;;4839189;29;20132;-85
2021/10/02 07:19:21;;;;;;;50.75;29.75;;;13.40;99.90;;;;;;4860239;29;20119;-86
2021/10/02 07:21:47;;;;;;;47.47;30.58;;;13.50;99.90;;;;;;4850920;29;20052;-87
2021/10/02 07:24:15;;;;;;;47.47;30.15;;;13.50;99.90;;;;;;4835706;29;20048;-84
2021/10/02 07:26:43;;;;;;;39.70;29.25;;;13.50;99.90;;;;;;4856143;29;20048;-83
2021/10/02 07:29:09;;;;;;;44.83;26.98;;;13.50;99.90;;;;;;4852090;29;20052;-85
2021/10/02 07:31:35;;;;;;;43.75;27.65;;;13.50;99.90;;;;;;4840400;29;20044;-86
2021/10/02 07:34:01;;;;;;;46.08;28.83;;;13.50;99.90;;;;;;4856394;29;20121;-86
2021/10/02 07:36:28;;;;;;;44.08;27.92;;;13.50;99.90;;;;;;4849440;29;20109;-86
2021/10/02 07:38:55;;;;;;;48.47;29.92;;;13.50;99.90;;;;;;4851992;29;20045;-85
2021/10/02 07:41:21;;;;;;;45.78;30.85;;;13.50;99.90;;;;;;4853175;29;20053;-86
2021/10/02 07:43:55;;;;;;;52.50;31.23;;;13.50;99.90;;;;;;4868585;29;20123;-85
2021/10/02 07:46:22;;;;;;;53.30;30.38;;;13.50;99.90;;;;;;4855348;29;20044;-83
2021/10/02 07:48:51;;;;;;;52.05;30.92;;;13.60;99.90;;;;;;4835512;29;20064;-84
2021/10/02 07:51:17;;;;;;;42.15;28.20;;;13.60;99.90;;;;;;4872230;29;20248;-83
2021/10/02 07:53:43;;;;;;;45.38;27.77;;;13.60;99.90;;;;;;4856001;29;20059;-86
2021/10/02 07:56:11;;;;;;;49.58;30.02;;;13.80;99.90;;;;;;4832009;29;20048;-86
2021/10/02 07:58:38;;;;;;;40.97;26.13;;;13.80;99.90;;;;;;4855839;29;20089;-83
2021/10/02 08:01:04;;;;;;;38.40;27.33;;;13.90;99.90;;;;;;4867828;29;20180;-85
2021/10/02 08:03:31;;;;;;;37.25;26.42;;;13.90;99.90;;;;;;4853726;29;20037;-85
2021/10/02 08:05:56;;;;;;;38.08;27.30;;;14.00;99.90;;;;;;4853574;29;20033;-83
2021/10/02 08:08:22;;;;;;;39.80;24.33;;;14.00;99.90;;;;;;4849193;29;20036;-83
2021/10/02 08:10:50;;;;;;;46.95;28.33;;;14.10;99.90;;;;;;4868053;29;20052;-84
2021/10/02 08:13:16;;;;;;;43.22;26.35;;;14.10;99.90;;;;;;4857225;29;20100;-86
2021/10/02 08:15:45;;;;;;;41.53;25.55;;;14.10;99.90;;;;;;4847428;29;20045;-87
2021/10/02 08:18:17;;;;;;;38.58;26.15;;;14.10;99.90;;;;;;4866707;29;20117;-86
2021/10/02 08:20:44;;;;;;;46.25;27.63;;;14.10;99.90;;;;;;4858677;29;20044;-86
2021/10/02 08:23:14;;;;;;;39.25;25.90;;;14.10;99.90;;;;;;4831739;29;20047;-86
2021/10/02 08:25:44;;;;;;;37.33;24.83;;;14.10;99.90;;;;;;4852037;29;20484;-85
2021/10/02 08:28:10;;;;;;;38.10;25.48;;;14.10;99.90;;;;;;4852044;29;20746;-83
2021/10/02 08:30:37;;;;;;;41.42;24.60;;;14.20;99.90;;;;;;4863076;29;20076;-87
2021/10/02 08:33:10;;;;;;;42.67;24.77;;;14.10;99.90;;;;;;4836302;29;20116;-83
2021/10/02 08:35:36;;;;;;;35.50;24.35;;;14.20;99.90;;;;;;4864187;29;20505;-86
2021/10/02 08:38:03;;;;;;;37.50;24.10;;;14.20;99.90;;;;;;4851095;29;20043;-85
2021/10/02 08:40:57;;;;;;;42.13;23.58;;;14.30;99.90;;;;;;4864371;29;20076;-85
2021/10/02 08:43:23;;;;;;;32.25;21.77;;;14.30;99.90;;;;;;4854768;29;20099;-82
2021/10/02 08:45:49;;;;;;;35.60;22.45;;;14.30;99.90;;;;;;4838721;29;20367;-83
2021/10/02 08:48:17;;;;;;;32.58;20.83;;;14.30;99.90;;;;;;4874802;29;20037;-83
2021/10/02 08:50:45;;;;;;;29.63;21.23;;;14.30;99.90;;;;;;4866338;29;20033;-85
2021/10/02 08:53:12;;;;;;;32.15;20.63;;;14.30;99.90;;;;;;4843273;29;20041;-83
2021/10/02 08:55:40;;;;;;;32.38;22.02;;;14.30;99.90;;;;;;4866751;29;20037;-82
2021/10/02 08:58:06;;;;;;;32.72;22.23;;;14.30;99.90;;;;;;4880484;29;20067;-81
2021/10/02 09:00:31;;;;;;;32.47;19.83;;;14.40;99.90;;;;;;4828010;29;20037;-82
2021/10/02 09:02:58;;;;;;;31.55;20.38;;;14.40;99.90;;;;;;4863795;29;20051;-83
2021/10/02 09:05:26;;;;;;;34.95;22.23;;;14.40;99.90;;;;;;4873487;29;20045;-84
2021/10/02 09:07:56;;;;;;;36.65;21.73;;;14.40;99.90;;;;;;4864045;29;20123;-81
2021/10/02 09:10:23;;;;;;;30.60;20.60;;;14.40;99.90;;;;;;4867682;29;20041;-84
2021/10/02 09:12:49;;;;;;;26.33;19.67;;;14.50;99.90;;;;;;4857802;29;20104;-84
2021/10/02 09:15:17;;;;;;;31.27;20.77;;;14.50;99.90;;;;;;4861541;29;20049;-81
2021/10/02 09:17:45;;;;;;;33.85;21.00;;;14.50;99.90;;;;;;4872747;29;20097;-82
2021/10/02 09:20:13;;;;;;;33.85;21.10;;;14.50;99.90;;;;;;4857195;29;20129;-83
2021/10/02 09:22:39;;;;;;;30.13;20.70;;;14.60;99.90;;;;;;4856616;29;20048;-82
2021/10/02 09:25:09;;;;;;;31.05;21.70;;;14.60;99.90;;;;;;4854969;29;20209;-81
2021/10/02 09:27:36;;;;;;;32.08;19.88;;;14.60;99.90;;;;;;4864216;29;20583;-85
2021/10/02 09:30:11;;;;;;;30.98;19.05;;;14.60;99.90;;;;;;4875929;29;20117;-83
2021/10/02 09:32:59;;;;;;;29.10;18.73;;;14.50;99.90;;;;;;4856151;29;20145;-82
2021/10/02 09:35:25;;;;;;;28.48;18.33;;;14.50;99.90;;;;;;4852196;29;20060;-83
2021/10/02 09:37:55;;;;;;;30.52;19.08;;;14.50;99.90;;;;;;4846887;29;20444;-83
2021/10/02 09:40:24;;;;;;;26.75;18.83;;;14.50;99.90;;;;;;4857176;29;20041;-84
2021/10/02 09:43:00;;;;;;;27.10;19.50;;;14.50;99.90;;;;;;4856422;29;20043;-83
2021/10/02 09:45:27;;;;;;;28.92;17.92;;;14.60;99.90;;;;;;4858235;29;20136;-83
2021/10/02 09:47:56;;;;;;;27.40;18.63;;;14.60;99.90;;;;;;4856812;29;20048;-82
2021/10/02 09:50:24;;;;;;;24.35;16.50;;;14.60;99.90;;;;;;4879118;29;20690;-80
2021/10/02 09:52:54;;;;;;;27.10;16.33;;;14.70;99.90;;;;;;4872849;29;20037;-83
2021/10/02 09:55:24;;;;;;;24.90;15.85;;;14.70;99.90;;;;;;4879745;29;20033;-81
2021/10/02 09:57:53;;;;;;;23.02;15.95;;;14.70;99.90;;;;;;4877172;29;20041;-83
2021/10/02 10:00:24;;;;;;;23.63;16.25;;;14.70;99.90;;;;;;4870715;29;20046;-81
2021/10/02 10:02:51;;;;;;;21.50;15.23;;;14.80;99.90;;;;;;4873164;29;20096;-84
2021/10/02 10:05:17;;;;;;;21.48;14.90;;;14.80;99.90;;;;;;4858747;29;20101;-84
2021/10/02 10:07:55;;;;;;;20.83;14.07;;;14.90;99.90;;;;;;4844931;29;20041;-82
2021/10/02 10:10:22;;;;;;;21.33;14.10;;;14.90;99.90;;;;;;4871966;29;20041;-83
2021/10/02 10:12:48;;;;;;;22.15;12.95;;;14.90;99.90;;;;;;4840142;29;20049;-84
2021/10/02 10:15:34;;;;;;;20.23;12.20;;;15.00;99.90;;;;;;4858335;29;20045;-83
2021/10/02 10:18:01;;;;;;;17.45;10.20;;;15.00;99.90;;;;;;4873914;29;20041;-81
2021/10/02 10:20:58;;;;;;;14.07;11.13;;;15.00;99.90;;;;;;4847807;29;20057;-80
2021/10/02 10:23:37;;;;;;;15.32;9.30;;;15.00;99.90;;;;;;4842556;29;20309;-86
2021/10/02 10:26:04;;;;;;;16.30;9.27;;;15.10;99.90;;;;;;4844815;29;20062;-81
2021/10/02 10:28:34;;;;;;;16.73;10.75;;;15.20;99.90;;;;;;4853295;29;20041;-83
2021/10/02 10:31:13;;;;;;;15.63;9.48;;;15.20;99.90;;;;;;4842573;29;20136;-86
2021/10/02 10:33:41;;;;;;;15.85;8.63;;;15.20;99.90;;;;;;4853059;29;20045;-83
2021/10/02 10:36:08;;;;;;;14.98;8.45;;;15.20;99.90;;;;;;4865482;29;20055;-78
2021/10/02 10:38:35;;;;;;;15.38;8.27;;;15.20;99.90;;;;;;4851707;29;20507;-83
2021/10/02 10:41:03;;;;;;;14.52;7.60;;;15.20;99.90;;;;;;4861844;29;20045;-84
2021/10/02 10:43:30;;;;;;;12.65;7.47;;;15.20;99.90;;;;;;4848103;29;20049;-82
2021/10/02 10:46:10;;;;;;;13.77;6.60;;;15.30;99.90;;;;;;4825026;29;20041;-83
2021/10/02 10:48:36;;;;;;;12.02;6.63;;;15.40;99.90;;;;;;4858032;29;20037;-81
2021/10/02 10:51:07;;;;;;;11.73;5.30;;;15.50;99.50;;;;;;4851488;29;20108;-83
2021/10/02 10:53:40;;;;;;;11.60;5.65;;;15.50;99.30;;;;;;4864117;29;20509;-83
2021/10/02 10:56:07;;;;;;;11.48;5.30;;;15.60;99.30;;;;;;4855767;29;20077;-84
2021/10/02 10:58:33;;;;;;;12.98;5.13;;;15.60;99.10;;;;;;4848195;29;20132;-83
2021/10/02 11:01:02;;;;;;;8.13;4.80;;;15.70;99.10;;;;;;4854373;29;20497;-79
2021/10/02 11:03:45;;;;;;;9.48;4.10;;;15.80;98.30;;;;;;4867629;29;20068;-83
2021/10/02 11:06:15;;;;;;;10.95;4.43;;;15.90;98.00;;;;;;4837981;29;20052;-83
2021/10/02 11:09:00;;;;;;;8.38;4.70;;;15.90;96.90;;;;;;4863377;29;20504;-81
2021/10/02 11:11:51;;;;;;;11.02;4.28;;;16.00;96.10;;;;;;4870412;29;20049;-84
2021/10/02 11:14:19;;;;;;;9.25;3.78;;;16.00;96.10;;;;;;4865451;29;20159;-83
2021/10/02 11:16:47;;;;;;;10.98;4.03;;;16.00;95.20;;;;;;4833852;29;20525;-80
2021/10/02 11:19:43;;;;;;;10.70;3.85;;;16.00;95.60;;;;;;4836814;29;20398;-82
2021/10/02 11:22:42;;;;;;;8.63;3.42;;;15.80;96.20;;;;;;4841230;29;20117;-82
2021/10/02 11:25:19;;;;;;;10.35;3.55;;;15.80;96.30;;;;;;4866478;29;20057;-83
2021/10/02 11:27:44;;;;;;;6.63;3.45;;;15.70;96.20;;;;;;4850338;29;20045;-84
2021/10/02 11:30:19;;;;;;;9.70;4.10;;;15.80;97.20;;;;;;4849932;29;20074;-81
2021/10/02 11:32:45;;;;;;;11.50;4.32;;;15.80;96.80;;;;;;4868230;29;20378;-85
2021/10/02 11:35:34;;;;;;;10.63;4.38;;;15.80;96.40;;;;;;4834791;29;20037;-82
2021/10/02 11:38:07;;;;;;;11.90;4.13;;;15.80;96.80;;;;;;4854006;29;20470;-84
2021/10/02 11:40:36;;;;;;;8.20;3.85;;;15.80;96.10;;;;;;4852205;29;20045;-79
2021/10/02 11:43:18;;;;;;;8.98;4.20;;;15.80;96.00;;;;;;4855647;29;20120;-84
2021/10/02 11:45:43;;;;;;;10.85;4.55;;;15.80;96.60;;;;;;4871447;29;20511;-82
2021/10/02 11:48:10;;;;;;;22.92;4.53;;;15.80;96.90;;;;;;4865586;29;20132;-83
2021/10/02 11:50:36;;;;;;;9.40;3.00;;;15.80;97.00;;;;;;4865681;29;20396;-82
2021/10/02 11:53:02;;;;;;;9.90;3.05;;;15.80;96.30;;;;;;4843771;29;20037;-81
2021/10/02 11:55:38;;;;;;;8.23;2.85;;;15.80;96.10;;;;;;4850777;29;20044;-84
2021/10/02 11:58:09;;;;;;;7.82;3.10;;;15.70;96.20;;;;;;4860099;29;20646;-84
2021/10/02 12:00:45;;;;;;;19.45;4.32;;;15.70;96.90;;;;;;4859742;29;20538;-85
2021/10/02 12:03:14;;;;;;;15.02;4.20;;;15.60;97.40;;;;;;4866669;29;20052;-84
2021/10/02 12:05:46;;;;;;;18.23;3.65;;;15.60;97.40;;;;;;4866419;29;20037;-84
2021/10/02 12:08:13;;;;;;;;;;;15.60;97.60;;;;;;4849513;29;20116;-82
2021/10/02 12:10:52;;;;;;;10.63;2.97;;;15.50;98.00;;;;;;4857806;29;19931;-80
2021/10/02 12:13:33;;;;;;;15.57;3.70;;;15.60;97.60;;;;;;4860959;29;20108;-82
2021/10/02 12:16:13;;;;;;;8.02;3.45;;;15.50;97.80;;;;;;4862337;29;20200;-81
2021/10/02 12:18:53;;;;;;;8.98;3.60;;;15.50;97.70;;;;;;4844846;29;20063;-83
2021/10/02 12:21:26;;;;;;;16.50;3.83;;;15.60;97.60;;;;;;4851904;29;20493;-83
2021/10/02 12:23:55;;;;;;;11.27;3.85;;;15.60;97.70;;;;;;4851138;29;20056;-80
2021/10/02 12:26:22;;;;;;;11.02;3.85;;;15.50;97.60;;;;;;4829038;29;20041;-81
2021/10/02 12:28:54;;;;;;;12.80;3.60;;;15.50;97.90;;;;;;4853293;29;20057;-83
2021/10/02 12:31:20;;;;;;;19.90;4.13;;;15.50;98.20;;;;;;4850250;29;20044;-84
2021/10/02 12:33:45;;;;;;;12.25;3.15;;;15.50;98.40;;;;;;4821550;29;20045;-80
2021/10/02 12:36:11;;;;;;;28.95;4.20;;;15.50;98.60;;;;;;4828703;29;20494;-80
2021/10/02 12:38:45;;;;;;;16.48;4.53;;;15.50;98.60;;;;;;4844849;29;20157;-84
2021/10/02 12:41:11;;;;;;;11.25;3.85;;;15.50;98.80;;;;;;4867269;29;20090;-85
2021/10/02 12:43:37;;;;;;;17.00;4.82;;;15.50;98.70;;;;;;4866875;29;20061;-81
2021/10/02 12:46:15;;;;;;;9.13;3.90;;;15.50;98.60;;;;;;4825009;29;20033;-81
2021/10/02 12:48:42;;;;;;;12.20;4.13;;;15.40;98.50;;;;;;4876861;29;20056;-83
2021/10/02 12:51:09;;;;;;;6.28;3.53;;;15.40;98.50;;;;;;4855029;29;20040;-84
2021/10/02 12:53:37;;;;;;;7.00;4.10;;;15.40;98.70;;;;;;4849540;29;20068;-83
2021/10/02 12:56:17;;;;;;;14.85;4.22;;;15.40;98.80;;;;;;4868734;29;20049;-86
2021/10/02 12:58:43;;;;;;;12.63;3.88;;;15.40;99.10;;;;;;4867392;29;20087;-84
2021/10/02 13:01:10;;;;;;;17.45;4.70;;;15.40;99.40;;;;;;4862705;29;20508;-85
2021/10/02 13:03:40;;;;;;;12.45;4.50;;;15.40;99.70;;;;;;4846502;29;20052;-84
2021/10/02 13:06:06;;;;;;;14.85;4.65;;;15.40;99.90;;;;;;4848475;29;20455;-85
2021/10/02 13:08:32;;;;;;;9.57;4.10;;;15.40;99.90;;;;;;4829371;29;20171;-83
2021/10/02 13:10:58;;;;;;;9.48;4.55;;;15.40;99.90;;;;;;5136751;23;20055;-84
2021/10/02 13:13:24;;;;;;;12.13;4.72;;;15.40;99.90;;;;;;4850247;29;20041;-86
2021/10/02 13:15:52;;;;;;;12.73;4.40;;;15.40;99.90;;;;;;4859263;29;20519;-83
2021/10/02 13:18:18;;;;;;;9.55;4.40;;;15.40;99.90;;;;;;4857145;29;20338;-83
2021/10/02 13:20:46;;;;;;;12.70;4.60;;;15.40;99.90;;;;;;4860966;29;20766;-83
2021/10/02 13:23:15;;;;;;;14.32;4.32;;;15.50;99.90;;;;;;4876811;29;20302;-86
2021/10/02 13:25:46;;;;;;;17.08;4.72;;;15.50;99.90;;;;;;4840337;29;20053;-86
2021/10/02 13:28:30;;;;;;;9.95;3.90;;;15.50;99.90;;;;;;4852357;29;20404;-84
2021/10/02 13:30:58;;;;;;;17.25;4.38;;;15.50;99.90;;;;;;4857126;29;20517;-85
2021/10/02 13:33:25;;;;;;;8.02;2.90;;;15.50;99.90;;;;;;4836293;29;20041;-84